createdAt,value
2018-09-27T00:00:50.631Z,1006.54
2018-09-27T00:01:50.604Z,1006.57
2018-09-27T00:02:50.559Z,1006.60
2018-09-27T00:03:50.568Z,1006.56
2018-09-27T00:04:50.544Z,1006.60
2018-09-27T00:05:50.530Z,1006.53
2018-09-27T00:06:50.519Z,1006.50
2018-09-27T00:07:50.544Z,1006.52
2018-09-27T00:08:50.522Z,1006.59
2018-09-27T00:09:50.486Z,1006.56
2018-09-27T00:10:50.473Z,1006.58
2018-09-27T00:11:50.464Z,1006.60
2018-09-27T00:12:50.453Z,1006.61
2018-09-27T00:13:50.490Z,1006.68
2018-09-27T00:14:50.431Z,1006.71
2018-09-27T00:15:50.421Z,1006.71
2018-09-27T00:16:50.409Z,1006.69
2018-09-27T00:17:50.401Z,1006.70
2018-09-27T00:18:50.404Z,1006.75
2018-09-27T00:19:50.423Z,1006.78
2018-09-27T00:20:50.371Z,1006.76
2018-09-27T00:21:50.356Z,1006.78
2018-09-27T00:22:50.348Z,1006.83
2018-09-27T00:23:50.350Z,1006.81
2018-09-27T00:24:50.327Z,1006.84
2018-09-27T00:25:50.351Z,1006.84
2018-09-27T00:26:50.305Z,1006.83
2018-09-27T00:27:50.294Z,1006.84
2018-09-27T00:28:50.299Z,1006.83
2018-09-27T00:29:50.274Z,1006.80
2018-09-27T00:30:50.262Z,1006.80
2018-09-27T00:33:00.004Z,1006.77
2018-09-27T00:34:00.010Z,1006.80
2018-09-27T00:34:59.979Z,1006.77
2018-09-27T00:35:59.971Z,1006.74
2018-09-27T00:36:59.989Z,1006.82
2018-09-27T00:37:59.949Z,1006.80
2018-09-27T00:38:59.966Z,1006.77
2018-09-27T00:40:00.003Z,1006.77
2018-09-27T00:40:59.928Z,1006.74
2018-09-27T00:41:59.909Z,1006.78
2018-09-27T00:42:59.896Z,1006.80
2018-09-27T00:43:59.909Z,1006.80
2018-09-27T00:44:59.990Z,1006.77
2018-09-27T00:45:59.863Z,1006.78
2018-09-27T00:46:59.852Z,1006.78
2018-09-27T00:47:59.843Z,1006.76
2018-09-27T00:48:59.829Z,1006.76
2018-09-27T00:49:59.836Z,1006.74
2018-09-27T00:50:59.856Z,1006.74
2018-09-27T00:51:59.798Z,1006.71
2018-09-27T00:52:59.824Z,1006.77
2018-09-27T00:53:59.777Z,1006.73
2018-09-27T00:54:59.782Z,1006.70
2018-09-27T00:55:59.820Z,1006.72
2018-09-27T00:56:59.759Z,1006.73
2018-09-27T00:57:59.733Z,1006.70
2018-09-27T00:58:59.721Z,1006.70
2018-09-27T00:59:59.726Z,1006.68
2018-09-27T01:00:59.702Z,1006.67
2018-09-27T01:01:59.694Z,1006.70
2018-09-27T01:02:59.722Z,1006.66
2018-09-27T01:03:59.671Z,1006.68
2018-09-27T01:04:59.692Z,1006.69
2018-09-27T01:05:59.676Z,1006.71
2018-09-27T01:06:59.638Z,1006.68
2018-09-27T01:07:59.629Z,1006.70
2018-09-27T01:08:59.877Z,1006.72
2018-09-27T01:09:59.621Z,1006.67
2018-09-27T01:10:59.594Z,1006.69
2018-09-27T01:11:59.630Z,1006.70
2018-09-27T01:12:59.574Z,1006.65
2018-09-27T01:13:59.561Z,1006.67
2018-09-27T01:14:59.617Z,1006.67
2018-09-27T01:15:59.542Z,1006.67
2018-09-27T01:16:59.530Z,1006.66
2018-09-27T01:17:59.520Z,1006.65
2018-09-27T01:18:59.505Z,1006.66
2018-09-27T01:19:59.513Z,1006.66
2018-09-27T01:20:59.504Z,1006.64
2018-09-27T01:21:59.476Z,1006.62
2018-09-27T01:22:59.465Z,1006.64
2018-09-27T01:23:59.458Z,1006.66
2018-09-27T01:24:59.457Z,1006.57
2018-09-27T01:25:59.435Z,1006.66
2018-09-27T01:26:59.449Z,1006.65
2018-09-27T01:27:59.411Z,1006.66
2018-09-27T01:28:59.402Z,1006.66
2018-09-27T01:29:59.408Z,1006.69
2018-09-27T01:30:59.380Z,1006.67
2018-09-27T01:31:59.368Z,1006.68
2018-09-27T01:32:59.393Z,1006.63
2018-09-27T01:33:59.345Z,1006.62
2018-09-27T01:34:59.363Z,1006.62
2018-09-27T01:35:59.323Z,1006.64
2018-09-27T01:36:59.316Z,1006.63
2018-09-27T01:37:59.384Z,1006.62
2018-09-27T01:38:59.334Z,1006.58
2018-09-27T01:39:59.280Z,1006.59
2018-09-27T01:40:59.418Z,1006.56
2018-09-27T01:41:59.257Z,1006.53
2018-09-27T01:42:59.246Z,1006.54
2018-09-27T01:43:59.236Z,1006.47
2018-09-27T01:44:59.263Z,1006.51
2018-09-27T01:45:59.231Z,1006.49
2018-09-27T01:46:59.247Z,1006.52
2018-09-27T01:47:59.194Z,1006.53
2018-09-27T01:48:59.187Z,1006.49
2018-09-27T01:49:59.169Z,1006.48
2018-09-27T01:50:59.218Z,1006.48
2018-09-27T01:51:59.150Z,1006.48
2018-09-27T01:52:59.139Z,1006.43
2018-09-27T01:53:59.507Z,1006.38
2018-09-27T01:54:59.118Z,1006.38
2018-09-27T01:55:59.123Z,1006.44
2018-09-27T01:56:59.268Z,1006.42
2018-09-27T01:57:59.086Z,1006.38
2018-09-27T01:58:59.074Z,1006.43
2018-09-27T01:59:59.078Z,1006.37
2018-09-27T02:00:59.073Z,1006.35
2018-09-27T02:01:59.073Z,1006.38
2018-09-27T02:02:59.031Z,1006.34
2018-09-27T02:03:59.020Z,1006.24
2018-09-27T02:04:59.010Z,1006.25
2018-09-27T02:05:59.017Z,1006.19
2018-09-27T02:06:59.017Z,1006.22
2018-09-27T02:07:59.016Z,1006.13
2018-09-27T02:08:59.055Z,1006.21
2018-09-27T02:09:58.958Z,1006.21
2018-09-27T02:10:58.967Z,1006.18
2018-09-27T02:11:58.933Z,1006.10
2018-09-27T02:12:58.923Z,1006.18
2018-09-27T02:13:58.915Z,1006.16
2018-09-27T02:14:58.930Z,1006.15
2018-09-27T02:15:58.916Z,1006.16
2018-09-27T02:16:58.883Z,1006.16
2018-09-27T02:17:58.869Z,1006.23
2018-09-27T02:18:58.857Z,1006.20
2018-09-27T02:19:58.846Z,1006.18
2018-09-27T02:20:58.854Z,1006.23
2018-09-27T02:21:58.841Z,1006.20
2018-09-27T02:22:58.869Z,1006.23
2018-09-27T02:23:58.804Z,1006.23
2018-09-27T02:24:58.793Z,1006.27
2018-09-27T02:25:58.782Z,1006.27
2018-09-27T02:26:58.823Z,1006.24
2018-09-27T02:27:58.761Z,1006.24
2018-09-27T02:28:58.753Z,1006.20
2018-09-27T02:29:58.737Z,1006.17
2018-09-27T02:30:58.733Z,1006.12
2018-09-27T02:31:58.733Z,1006.11
2018-09-27T02:32:58.756Z,1006.13
2018-09-27T02:33:58.701Z,1006.08
2018-09-27T02:34:58.686Z,1006.11
2018-09-27T02:35:58.697Z,1006.04
2018-09-27T02:36:58.681Z,1006.03
2018-09-27T02:37:58.657Z,1005.99
2018-09-27T02:38:58.793Z,1006.02
2018-09-27T02:39:58.634Z,1005.93
2018-09-27T02:40:58.623Z,1005.92
2018-09-27T02:41:58.622Z,1005.85
2018-09-27T02:42:58.603Z,1005.90
2018-09-27T02:43:58.588Z,1005.90
2018-09-27T02:44:58.616Z,1005.92
2018-09-27T02:45:58.569Z,1005.82
2018-09-27T02:46:58.574Z,1005.80
2018-09-27T02:47:58.545Z,1005.85
2018-09-27T02:48:58.538Z,1005.80
2018-09-27T02:49:58.524Z,1005.83
2018-09-27T02:50:58.588Z,1005.73
2018-09-27T02:51:58.519Z,1005.74
2018-09-27T02:52:58.494Z,1005.68
2018-09-27T02:53:58.480Z,1005.65
2018-09-27T02:54:58.469Z,1005.63
2018-09-27T02:55:58.466Z,1005.62
2018-09-27T02:56:58.511Z,1005.58
2018-09-27T02:57:58.441Z,1005.60
2018-09-27T02:58:58.430Z,1005.58
2018-09-27T02:59:58.415Z,1005.57
2018-09-27T03:00:58.407Z,1005.60
2018-09-27T03:01:58.409Z,1005.54
2018-09-27T03:02:58.424Z,1005.50
2018-09-27T03:03:58.377Z,1005.48
2018-09-27T03:04:58.364Z,1005.49
2018-09-27T03:05:58.364Z,1005.50
2018-09-27T03:06:58.365Z,1005.50
2018-09-27T03:07:58.329Z,1005.49
2018-09-27T03:08:58.358Z,1005.48
2018-09-27T03:09:58.307Z,1005.44
2018-09-27T03:10:58.303Z,1005.45
2018-09-27T03:11:58.297Z,1005.36
2018-09-27T03:12:58.295Z,1005.37
2018-09-27T03:13:58.398Z,1005.39
2018-09-27T03:14:58.279Z,1005.35
2018-09-27T03:15:58.256Z,1005.37
2018-09-27T03:16:58.235Z,1005.31
2018-09-27T03:17:58.431Z,1005.34
2018-09-27T03:18:58.210Z,1005.29
2018-09-27T03:19:58.208Z,1005.28
2018-09-27T03:20:58.338Z,1005.28
2018-09-27T03:21:58.177Z,1005.28
2018-09-27T03:22:58.181Z,1005.28
2018-09-27T03:23:58.212Z,1005.30
2018-09-27T03:24:58.151Z,1005.33
2018-09-27T03:25:58.138Z,1005.28
2018-09-27T03:26:58.161Z,1005.27
2018-09-27T03:27:58.128Z,1005.26
2018-09-27T03:28:58.103Z,1005.26
2018-09-27T03:29:58.106Z,1005.25
2018-09-27T03:30:58.094Z,1005.20
2018-09-27T03:31:58.086Z,1005.21
2018-09-27T03:33:12.763Z,1005.22
2018-09-27T03:33:58.073Z,1005.17
2018-09-27T03:34:58.062Z,1005.18
2018-09-27T03:35:58.042Z,1005.17
2018-09-27T03:36:58.055Z,1005.23
2018-09-27T03:37:58.084Z,1005.19
2018-09-27T03:38:57.994Z,1005.21
2018-09-27T03:39:58.015Z,1005.15
2018-09-27T03:40:57.975Z,1005.19
2018-09-27T03:41:57.961Z,1005.16
2018-09-27T03:42:57.962Z,1005.16
2018-09-27T03:43:57.944Z,1005.16
2018-09-27T03:44:57.929Z,1005.16
2018-09-27T03:45:57.957Z,1005.15
2018-09-27T03:46:57.909Z,1005.12
2018-09-27T03:47:57.912Z,1005.14
2018-09-27T03:48:57.886Z,1005.13
2018-09-27T03:49:57.874Z,1005.11
2018-09-27T03:50:57.865Z,1005.11
2018-09-27T03:51:57.875Z,1005.11
2018-09-27T03:52:57.856Z,1005.12
2018-09-27T03:53:57.839Z,1005.14
2018-09-27T03:54:57.822Z,1005.12
2018-09-27T03:55:57.810Z,1005.14
2018-09-27T03:56:57.798Z,1005.14
2018-09-27T03:57:57.860Z,1005.19
2018-09-27T03:58:57.779Z,1005.17
2018-09-27T03:59:57.853Z,1005.16
2018-09-27T04:00:57.757Z,1005.14
2018-09-27T04:01:57.745Z,1005.14
2018-09-27T04:02:57.831Z,1005.14
2018-09-27T04:03:57.775Z,1005.18
2018-09-27T04:04:57.717Z,1005.13
2018-09-27T04:05:57.711Z,1005.21
2018-09-27T04:06:57.706Z,1005.22
2018-09-27T04:07:57.682Z,1005.18
2018-09-27T04:08:57.696Z,1005.25
2018-09-27T04:09:57.709Z,1005.23
2018-09-27T04:10:57.666Z,1005.27
2018-09-27T04:11:57.644Z,1005.26
2018-09-27T04:12:57.639Z,1005.23
2018-09-27T04:13:57.642Z,1005.30
2018-09-27T04:14:57.609Z,1005.30
2018-09-27T04:15:57.635Z,1005.27
2018-09-27T04:16:57.588Z,1005.28
2018-09-27T04:17:57.573Z,1005.28
2018-09-27T04:18:57.578Z,1005.26
2018-09-27T04:19:57.553Z,1005.23
2018-09-27T04:20:57.550Z,1005.30
2018-09-27T04:21:57.635Z,1005.29
2018-09-27T04:22:57.524Z,1005.29
2018-09-27T04:23:57.579Z,1005.27
2018-09-27T04:24:57.535Z,1005.33
2018-09-27T04:25:57.495Z,1005.37
2018-09-27T04:26:57.476Z,1005.37
2018-09-27T04:27:57.497Z,1005.43
2018-09-27T04:28:57.475Z,1005.43
2018-09-27T04:29:57.449Z,1005.39
2018-09-27T04:30:57.432Z,1005.40
2018-09-27T04:31:57.427Z,1005.39
2018-09-27T04:32:57.424Z,1005.40
2018-09-27T04:33:57.529Z,1005.40
2018-09-27T04:34:57.388Z,1005.38
2018-09-27T04:35:57.427Z,1005.39
2018-09-27T04:36:57.368Z,1005.37
2018-09-27T04:37:57.355Z,1005.38
2018-09-27T04:38:57.532Z,1005.35
2018-09-27T04:39:57.439Z,1005.35
2018-09-27T04:40:57.382Z,1005.36
2018-09-27T04:41:57.413Z,1005.34
2018-09-27T04:42:57.302Z,1005.31
2018-09-27T04:43:57.308Z,1005.33
2018-09-27T04:44:57.342Z,1005.28
2018-09-27T04:45:57.327Z,1005.26
2018-09-27T04:46:57.261Z,1005.24
2018-09-27T04:47:57.320Z,1005.30
2018-09-27T04:48:57.255Z,1005.26
2018-09-27T04:49:57.229Z,1005.23
2018-09-27T04:50:57.231Z,1005.28
2018-09-27T04:51:57.335Z,1005.26
2018-09-27T04:52:57.200Z,1005.24
2018-09-27T04:53:57.242Z,1005.21
2018-09-27T04:54:57.176Z,1005.23
2018-09-27T04:55:57.180Z,1005.18
2018-09-27T04:56:57.151Z,1005.15
2018-09-27T04:57:57.156Z,1005.19
2018-09-27T04:58:57.146Z,1005.18
2018-09-27T04:59:57.247Z,1005.16
2018-09-27T05:00:57.125Z,1005.20
2018-09-27T05:01:57.115Z,1005.18
2018-09-27T05:02:57.106Z,1005.15
2018-09-27T05:03:57.109Z,1005.15
2018-09-27T05:04:57.107Z,1005.13
2018-09-27T05:05:57.121Z,1005.11
2018-09-27T05:06:57.059Z,1005.10
2018-09-27T05:07:57.045Z,1005.06
2018-09-27T05:08:57.041Z,1005.08
2018-09-27T05:09:57.044Z,1005.05
2018-09-27T05:10:57.016Z,1005.05
2018-09-27T05:11:57.047Z,1005.08
2018-09-27T05:12:56.993Z,1005.03
2018-09-27T05:13:56.985Z,1005.06
2018-09-27T05:14:56.987Z,1005.00
2018-09-27T05:15:56.966Z,1005.00
2018-09-27T05:16:56.954Z,1005.02
2018-09-27T05:17:56.960Z,1005.01
2018-09-27T05:18:56.934Z,1005.00
2018-09-27T05:19:56.945Z,1005.02
2018-09-27T05:20:56.957Z,1004.96
2018-09-27T05:21:56.901Z,1004.99
2018-09-27T05:22:56.898Z,1005.06
2018-09-27T05:23:57.063Z,1005.01
2018-09-27T05:24:56.882Z,1004.94
2018-09-27T05:25:56.852Z,1004.95
2018-09-27T05:26:56.967Z,1004.99
2018-09-27T05:27:56.833Z,1004.98
2018-09-27T05:28:56.822Z,1004.96
2018-09-27T05:29:56.862Z,1005.00
2018-09-27T05:30:56.809Z,1004.96
2018-09-27T05:31:56.788Z,1004.93
2018-09-27T05:32:56.776Z,1004.90
2018-09-27T05:33:56.768Z,1004.92
2018-09-27T05:34:56.774Z,1004.86
2018-09-27T05:35:56.773Z,1004.85
2018-09-27T05:36:56.798Z,1004.87
2018-09-27T05:37:56.723Z,1004.83
2018-09-27T05:38:56.714Z,1004.81
2018-09-27T05:39:56.720Z,1004.81
2018-09-27T05:40:56.693Z,1004.84
2018-09-27T05:41:56.705Z,1004.83
2018-09-27T05:42:56.670Z,1004.82
2018-09-27T05:43:56.659Z,1004.76
2018-09-27T05:44:56.665Z,1004.75
2018-09-27T05:45:56.639Z,1004.78
2018-09-27T05:46:56.628Z,1004.75
2018-09-27T05:47:56.645Z,1004.72
2018-09-27T05:48:56.606Z,1004.76
2018-09-27T05:49:56.715Z,1004.75
2018-09-27T05:50:56.584Z,1004.79
2018-09-27T05:51:56.571Z,1004.78
2018-09-27T05:52:56.563Z,1004.76
2018-09-27T05:53:56.585Z,1004.79
2018-09-27T05:54:56.569Z,1004.78
2018-09-27T05:55:56.563Z,1004.72
2018-09-27T05:56:56.517Z,1004.74
2018-09-27T05:57:56.510Z,1004.78
2018-09-27T05:58:56.497Z,1004.75
2018-09-27T05:59:56.618Z,1004.77
2018-09-27T06:00:56.491Z,1004.77
2018-09-27T06:01:56.517Z,1004.77
2018-09-27T06:02:56.559Z,1004.73
2018-09-27T06:03:56.445Z,1004.72
2018-09-27T06:04:56.434Z,1004.70
2018-09-27T06:05:56.469Z,1004.76
2018-09-27T06:06:56.413Z,1004.75
2018-09-27T06:07:56.402Z,1004.77
2018-09-27T06:08:56.389Z,1004.76
2018-09-27T06:09:56.384Z,1004.78
2018-09-27T06:10:56.399Z,1004.79
2018-09-27T06:11:56.387Z,1004.81
2018-09-27T06:12:56.349Z,1004.82
2018-09-27T06:13:56.337Z,1004.87
2018-09-27T06:14:56.325Z,1004.91
2018-09-27T06:15:56.410Z,1004.96
2018-09-27T06:16:56.305Z,1004.94
2018-09-27T06:17:56.305Z,1004.85
2018-09-27T06:18:56.308Z,1004.89
2018-09-27T06:19:56.364Z,1004.87
2018-09-27T06:20:56.275Z,1004.82
2018-09-27T06:21:56.249Z,1004.74
2018-09-27T06:22:56.242Z,1004.76
2018-09-27T06:23:56.252Z,1004.81
2018-09-27T06:24:56.217Z,1004.81
2018-09-27T06:25:56.253Z,1004.74
2018-09-27T06:26:56.195Z,1004.79
2018-09-27T06:27:56.186Z,1004.78
2018-09-27T06:28:56.220Z,1004.80
2018-09-27T06:29:56.163Z,1004.82
2018-09-27T06:30:56.179Z,1004.80
2018-09-27T06:31:56.151Z,1004.84
2018-09-27T06:32:56.152Z,1004.82
2018-09-27T06:33:56.139Z,1004.82
2018-09-27T06:34:56.280Z,1004.84
2018-09-27T06:35:56.111Z,1004.88
2018-09-27T06:36:56.087Z,1004.89
2018-09-27T06:37:56.075Z,1004.83
2018-09-27T06:38:56.065Z,1004.88
2018-09-27T06:39:56.053Z,1004.87
2018-09-27T06:40:56.087Z,1004.89
2018-09-27T06:41:56.034Z,1004.91
2018-09-27T06:42:56.025Z,1004.93
2018-09-27T06:43:56.009Z,1004.95
2018-09-27T06:44:55.999Z,1004.85
2018-09-27T06:45:56.007Z,1004.88
2018-09-27T06:46:56.004Z,1004.87
2018-09-27T06:47:55.985Z,1004.86
2018-09-27T06:48:55.992Z,1004.90
2018-09-27T06:49:55.944Z,1004.95
2018-09-27T06:50:55.932Z,1004.90
2018-09-27T06:51:55.936Z,1004.89
2018-09-27T06:52:55.910Z,1004.91
2018-09-27T06:53:55.902Z,1004.91
2018-09-27T06:54:56.006Z,1004.93
2018-09-27T06:55:56.003Z,1004.98
2018-09-27T06:56:55.882Z,1005.00
2018-09-27T06:57:55.899Z,1004.95
2018-09-27T06:58:55.849Z,1004.97
2018-09-27T06:59:55.836Z,1005.00
2018-09-27T07:00:55.915Z,1004.99
2018-09-27T07:01:55.850Z,1004.99
2018-09-27T07:02:55.829Z,1004.97
2018-09-27T07:03:55.796Z,1004.99
2018-09-27T07:04:55.827Z,1004.95
2018-09-27T07:05:55.770Z,1004.94
2018-09-27T07:06:55.780Z,1004.96
2018-09-27T07:07:55.747Z,1004.95
2018-09-27T07:08:55.767Z,1004.94
2018-09-27T07:09:55.760Z,1004.87
2018-09-27T07:10:55.717Z,1004.90
2018-09-27T07:11:55.831Z,1004.92
2018-09-27T07:12:55.791Z,1004.87
2018-09-27T07:13:55.682Z,1004.90
2018-09-27T07:14:55.672Z,1004.86
2018-09-27T07:15:55.690Z,1004.88
2018-09-27T07:16:55.702Z,1004.89
2018-09-27T07:17:55.665Z,1004.84
2018-09-27T07:18:55.625Z,1004.82
2018-09-27T07:19:55.617Z,1004.87
2018-09-27T07:20:55.606Z,1004.79
2018-09-27T07:21:55.611Z,1004.84
2018-09-27T07:22:55.582Z,1004.83
2018-09-27T07:23:55.668Z,1004.87
2018-09-27T07:24:55.562Z,1004.80
2018-09-27T07:25:55.551Z,1004.78
2018-09-27T07:26:55.577Z,1004.82
2018-09-27T07:27:55.529Z,1004.83
2018-09-27T07:28:55.518Z,1004.85
2018-09-27T07:29:55.534Z,1004.83
2018-09-27T07:30:55.498Z,1004.80
2018-09-27T07:31:55.503Z,1004.83
2018-09-27T07:32:55.473Z,1004.90
2018-09-27T07:33:55.463Z,1004.85
2018-09-27T07:34:55.452Z,1004.84
2018-09-27T07:35:55.458Z,1004.87
2018-09-27T07:36:55.458Z,1004.83
2018-09-27T07:37:55.419Z,1004.84
2018-09-27T07:38:55.408Z,1004.84
2018-09-27T07:39:55.398Z,1004.83
2018-09-27T07:40:55.389Z,1004.76
2018-09-27T07:41:55.417Z,1004.80
2018-09-27T07:42:55.450Z,1004.77
2018-09-27T07:43:55.354Z,1004.78
2018-09-27T07:44:55.348Z,1004.73
2018-09-27T07:45:55.333Z,1004.74
2018-09-27T07:46:55.321Z,1004.78
2018-09-27T07:47:55.345Z,1004.72
2018-09-27T07:48:55.300Z,1004.76
2018-09-27T07:49:55.293Z,1004.68
2018-09-27T07:50:55.276Z,1004.71
2018-09-27T07:51:55.267Z,1004.69
2018-09-27T07:52:55.274Z,1004.72
2018-09-27T07:53:55.262Z,1004.67
2018-09-27T07:54:55.289Z,1004.67
2018-09-27T07:55:55.223Z,1004.76
2018-09-27T07:56:55.216Z,1004.70
2018-09-27T07:57:55.225Z,1004.71
2018-09-27T07:58:55.194Z,1004.73
2018-09-27T07:59:55.183Z,1004.73
2018-09-27T08:00:55.223Z,1004.76
2018-09-27T08:01:55.215Z,1004.76
2018-09-27T08:02:55.355Z,1004.75
2018-09-27T08:03:55.134Z,1004.79
2018-09-27T08:04:55.123Z,1004.75
2018-09-27T08:05:55.147Z,1004.76
2018-09-27T08:06:55.102Z,1004.77
2018-09-27T08:07:55.179Z,1004.83
2018-09-27T08:08:55.211Z,1004.78
2018-09-27T08:09:55.090Z,1004.71
2018-09-27T08:10:55.114Z,1004.77
2018-09-27T08:11:55.128Z,1004.77
2018-09-27T08:12:55.073Z,1004.79
2018-09-27T08:13:55.050Z,1004.77
2018-09-27T08:14:55.016Z,1004.79
2018-09-27T08:15:55.010Z,1004.77
2018-09-27T08:16:55.091Z,1004.77
2018-09-27T08:17:55.060Z,1004.77
2018-09-27T08:18:54.980Z,1004.79
2018-09-27T08:19:54.973Z,1004.79
2018-09-27T08:20:55.126Z,1004.76
2018-09-27T08:21:55.075Z,1004.84
2018-09-27T08:22:54.985Z,1004.78
2018-09-27T08:23:54.964Z,1004.77
2018-09-27T08:24:54.972Z,1004.78
2018-09-27T08:25:54.940Z,1004.77
2018-09-27T08:26:54.942Z,1004.80
2018-09-27T08:27:54.911Z,1004.80
2018-09-27T08:28:54.873Z,1004.79
2018-09-27T08:29:54.862Z,1004.83
2018-09-27T08:30:54.953Z,1004.86
2018-09-27T08:31:54.851Z,1004.81
2018-09-27T08:32:54.892Z,1004.79
2018-09-27T08:33:54.825Z,1004.79
2018-09-27T08:34:54.817Z,1004.79
2018-09-27T08:35:54.804Z,1004.81
2018-09-27T08:36:54.778Z,1004.74
2018-09-27T08:37:54.784Z,1004.70
2018-09-27T08:38:54.773Z,1004.70
2018-09-27T08:39:54.806Z,1004.71
2018-09-27T08:40:54.766Z,1004.71
2018-09-27T08:41:54.740Z,1004.68
2018-09-27T08:42:54.775Z,1004.68
2018-09-27T08:43:54.713Z,1004.62
2018-09-27T08:44:54.884Z,1004.67
2018-09-27T08:45:54.788Z,1004.66
2018-09-27T08:46:54.681Z,1004.65
2018-09-27T08:47:54.721Z,1004.69
2018-09-27T08:48:54.670Z,1004.62
2018-09-27T08:49:54.681Z,1004.66
2018-09-27T08:50:54.629Z,1004.65
2018-09-27T08:51:54.617Z,1004.63
2018-09-27T08:52:54.661Z,1004.66
2018-09-27T08:53:54.675Z,1004.63
2018-09-27T08:54:54.595Z,1004.57
2018-09-27T08:55:54.723Z,1004.55
2018-09-27T08:56:54.598Z,1004.60
2018-09-27T08:57:54.616Z,1004.59
2018-09-27T08:58:54.561Z,1004.50
2018-09-27T08:59:54.568Z,1004.53
2018-09-27T09:00:54.546Z,1004.50
2018-09-27T09:01:54.537Z,1004.53
2018-09-27T09:02:54.500Z,1004.52
2018-09-27T09:03:54.854Z,1004.47
2018-09-27T09:04:54.483Z,1004.49
2018-09-27T09:05:54.459Z,1004.50
2018-09-27T09:06:54.584Z,1004.44
2018-09-27T09:07:54.460Z,1004.41
2018-09-27T09:08:54.447Z,1004.40
2018-09-27T09:09:54.415Z,1004.38
2018-09-27T09:10:54.409Z,1004.32
2018-09-27T09:11:54.415Z,1004.34
2018-09-27T09:12:54.423Z,1004.31
2018-09-27T09:13:54.427Z,1004.35
2018-09-27T09:14:54.362Z,1004.28
2018-09-27T09:15:54.419Z,1004.30
2018-09-27T09:16:54.347Z,1004.30
2018-09-27T09:17:54.339Z,1004.29
2018-09-27T09:18:54.411Z,1004.30
2018-09-27T09:19:54.321Z,1004.28
2018-09-27T09:20:54.297Z,1004.24
2018-09-27T09:21:54.297Z,1004.21
2018-09-27T09:22:54.281Z,1004.19
2018-09-27T09:23:54.380Z,1004.21
2018-09-27T09:24:54.274Z,1004.13
2018-09-27T09:25:54.349Z,1004.12
2018-09-27T09:26:54.279Z,1004.12
2018-09-27T09:27:54.270Z,1004.05
2018-09-27T09:28:54.242Z,1004.06
2018-09-27T09:29:54.275Z,1004.05
2018-09-27T09:30:54.227Z,1004.04
2018-09-27T09:31:54.246Z,1003.99
2018-09-27T09:32:54.178Z,1003.98
2018-09-27T09:33:54.196Z,1003.96
2018-09-27T09:34:54.185Z,1003.97
2018-09-27T09:35:54.232Z,1004.00
2018-09-27T09:36:54.142Z,1003.97
2018-09-27T09:37:54.135Z,1003.98
2018-09-27T09:38:54.123Z,1003.96
2018-09-27T09:39:54.140Z,1004.03
2018-09-27T09:40:54.101Z,1003.95
2018-09-27T09:41:54.106Z,1003.94
2018-09-27T09:42:54.095Z,1003.93
2018-09-27T09:43:54.079Z,1003.96
2018-09-27T09:44:54.050Z,1003.98
2018-09-27T09:45:54.072Z,1003.94
2018-09-27T09:46:54.045Z,1003.94
2018-09-27T09:47:54.035Z,1003.90
2018-09-27T09:48:54.099Z,1003.92
2018-09-27T09:49:54.025Z,1003.88
2018-09-27T09:50:54.014Z,1003.87
2018-09-27T09:51:54.005Z,1003.89
2018-09-27T09:52:53.955Z,1003.85
2018-09-27T09:53:53.943Z,1003.84
2018-09-27T09:54:53.958Z,1003.86
2018-09-27T09:55:53.930Z,1003.83
2018-09-27T09:56:53.948Z,1003.82
2018-09-27T09:57:53.941Z,1003.81
2018-09-27T09:58:53.923Z,1003.80
2018-09-27T09:59:53.908Z,1003.76
2018-09-27T10:00:53.894Z,1003.76
2018-09-27T10:01:53.890Z,1003.73
2018-09-27T10:02:53.865Z,1003.71
2018-09-27T10:03:53.880Z,1003.69
2018-09-27T10:04:53.843Z,1003.71
2018-09-27T10:05:53.844Z,1003.65
2018-09-27T10:06:53.808Z,1003.65
2018-09-27T10:07:53.805Z,1003.62
2018-09-27T10:08:53.891Z,1003.64
2018-09-27T10:09:53.795Z,1003.59
2018-09-27T10:10:53.784Z,1003.55
2018-09-27T10:11:53.771Z,1003.57
2018-09-27T10:12:53.767Z,1003.53
2018-09-27T10:13:53.746Z,1003.53
2018-09-27T10:14:53.782Z,1003.48
2018-09-27T10:15:53.715Z,1003.51
2018-09-27T10:16:53.701Z,1003.50
2018-09-27T10:17:53.709Z,1003.47
2018-09-27T10:18:53.728Z,1003.43
2018-09-27T10:19:53.691Z,1003.41
2018-09-27T10:20:53.658Z,1003.38
2018-09-27T10:21:53.670Z,1003.38
2018-09-27T10:22:53.643Z,1003.42
2018-09-27T10:23:53.674Z,1003.38
2018-09-27T10:24:53.854Z,1003.33
2018-09-27T10:25:53.607Z,1003.36
2018-09-27T10:26:53.616Z,1003.32
2018-09-27T10:27:53.635Z,1003.26
2018-09-27T10:28:53.594Z,1003.30
2018-09-27T10:29:53.602Z,1003.24
2018-09-27T10:30:53.679Z,1003.27
2018-09-27T10:31:53.549Z,1003.26
2018-09-27T10:32:53.534Z,1003.29
2018-09-27T10:33:53.532Z,1003.22
2018-09-27T10:34:53.535Z,1003.20
2018-09-27T10:35:53.538Z,1003.25
2018-09-27T10:36:53.552Z,1003.22
2018-09-27T10:37:53.494Z,1003.26
2018-09-27T10:38:53.478Z,1003.24
2018-09-27T10:39:53.985Z,1003.26
2018-09-27T10:40:53.473Z,1003.25
2018-09-27T10:41:53.473Z,1003.27
2018-09-27T10:42:53.455Z,1003.16
2018-09-27T10:43:53.410Z,1003.18
2018-09-27T10:44:53.451Z,1003.16
2018-09-27T10:45:53.409Z,1003.15
2018-09-27T10:46:53.371Z,1003.12
2018-09-27T10:47:53.368Z,1003.14
2018-09-27T10:48:53.393Z,1003.16
2018-09-27T10:49:53.339Z,1003.09
2018-09-27T10:50:53.411Z,1003.07
2018-09-27T10:51:53.346Z,1003.12
2018-09-27T10:52:53.378Z,1003.13
2018-09-27T10:53:53.358Z,1003.05
2018-09-27T10:54:53.355Z,1003.09
2018-09-27T10:55:53.360Z,1003.06
2018-09-27T10:56:53.281Z,1003.04
2018-09-27T10:57:53.291Z,1003.00
2018-09-27T10:58:53.294Z,1002.97
2018-09-27T10:59:53.310Z,1002.91
2018-09-27T11:00:53.377Z,1002.99
2018-09-27T11:01:53.234Z,1002.99
2018-09-27T11:02:53.210Z,1002.95
2018-09-27T11:03:53.245Z,1002.90
2018-09-27T11:04:53.186Z,1002.88
2018-09-27T11:05:53.208Z,1002.88
2018-09-27T11:06:53.213Z,1002.88
2018-09-27T11:07:53.177Z,1002.84
2018-09-27T11:08:53.168Z,1002.80
2018-09-27T11:09:53.389Z,1002.81
2018-09-27T11:10:53.167Z,1002.78
2018-09-27T11:11:53.133Z,1002.77
2018-09-27T11:12:53.279Z,1002.72
2018-09-27T11:13:53.102Z,1002.72
2018-09-27T11:14:53.118Z,1002.68
2018-09-27T11:15:53.092Z,1002.68
2018-09-27T11:16:53.063Z,1002.66
2018-09-27T11:17:53.091Z,1002.63
2018-09-27T11:18:53.059Z,1002.66
2018-09-27T11:19:53.042Z,1002.66
2018-09-27T11:20:53.056Z,1002.64
2018-09-27T11:21:53.018Z,1002.64
2018-09-27T11:22:53.008Z,1002.61
2018-09-27T11:23:52.987Z,1002.64
2018-09-27T11:24:52.974Z,1002.57
2018-09-27T11:25:52.996Z,1002.57
2018-09-27T11:26:52.948Z,1002.56
2018-09-27T11:27:52.944Z,1002.52
2018-09-27T11:28:52.953Z,1002.49
2018-09-27T11:29:52.932Z,1002.51
2018-09-27T11:30:52.914Z,1002.47
2018-09-27T11:31:52.923Z,1002.48
2018-09-27T11:32:52.904Z,1002.46
2018-09-27T11:33:52.898Z,1002.39
2018-09-27T11:34:52.885Z,1002.41
2018-09-27T11:35:52.865Z,1002.37
2018-09-27T11:36:52.875Z,1002.34
2018-09-27T11:37:52.847Z,1002.37
2018-09-27T11:38:52.827Z,1002.34
2018-09-27T11:39:52.813Z,1002.32
2018-09-27T11:40:52.829Z,1002.33
2018-09-27T11:41:52.814Z,1002.23
2018-09-27T11:42:52.875Z,1002.23
2018-09-27T11:43:52.815Z,1002.15
2018-09-27T11:44:52.758Z,1002.13
2018-09-27T11:45:52.780Z,1002.11
2018-09-27T11:46:52.754Z,1002.06
2018-09-27T11:47:52.752Z,1002.04
2018-09-27T11:48:52.766Z,1002.03
2018-09-27T11:49:52.817Z,1001.98
2018-09-27T11:50:52.751Z,1001.93
2018-09-27T11:51:52.917Z,1001.91
2018-09-27T11:52:52.676Z,1001.90
2018-09-27T11:53:52.692Z,1001.89
2018-09-27T11:54:52.692Z,1001.86
2018-09-27T11:55:52.694Z,1001.81
2018-09-27T11:56:52.647Z,1001.78
2018-09-27T11:57:52.635Z,1001.82
2018-09-27T11:58:52.644Z,1001.80
2018-09-27T11:59:52.634Z,1001.79
2018-09-27T12:00:52.633Z,1001.80
2018-09-27T12:01:52.596Z,1001.77
2018-09-27T12:02:52.591Z,1001.73
2018-09-27T12:03:52.554Z,1001.69
2018-09-27T12:04:52.558Z,1001.70
2018-09-27T12:05:52.563Z,1001.68
2018-09-27T12:06:52.557Z,1001.67